createdAt,value
2023-02-27T00:00:53.339Z,6.40
2023-02-27T00:03:12.432Z,6.00
2023-02-27T00:05:25.177Z,5.60
2023-02-27T00:07:38.048Z,6.40
2023-02-27T00:09:50.558Z,6.90
2023-02-27T00:12:03.170Z,5.70
2023-02-27T00:14:15.845Z,6.10
2023-02-27T00:16:28.485Z,5.80
2023-02-27T00:18:41.074Z,6.50
2023-02-27T00:20:54.144Z,6.70
2023-02-27T00:23:08.172Z,7.30
2023-02-27T00:25:20.918Z,6.30
2023-02-27T00:27:34.700Z,5.80
2023-02-27T00:29:47.263Z,6.40
2023-02-27T00:32:00.211Z,6.10
2023-02-27T00:34:12.781Z,6.40
2023-02-27T00:36:25.316Z,6.40
2023-02-27T00:38:37.861Z,5.80
2023-02-27T00:40:50.509Z,5.60
2023-02-27T00:43:03.897Z,4.90
2023-02-27T00:45:16.658Z,5.10
2023-02-27T00:47:29.386Z,5.30
2023-02-27T00:49:41.943Z,5.30
2023-02-27T00:51:54.679Z,6.20
2023-02-27T00:54:07.339Z,7.20
2023-02-27T00:56:19.840Z,6.60
2023-02-27T00:58:32.449Z,6.70
2023-02-27T01:00:45.187Z,6.10
2023-02-27T01:02:57.854Z,5.70
2023-02-27T01:05:10.465Z,5.60
2023-02-27T01:07:23.030Z,5.40
2023-02-27T01:09:35.661Z,5.80
2023-02-27T01:11:48.343Z,6.00
2023-02-27T01:14:00.995Z,6.50
2023-02-27T01:16:14.496Z,9.10
2023-02-27T01:18:27.200Z,7.90
2023-02-27T01:20:39.977Z,7.00
2023-02-27T01:22:52.546Z,8.10
2023-02-27T01:25:05.706Z,7.50
2023-02-27T01:27:18.489Z,7.90
2023-02-27T01:29:31.044Z,6.90
2023-02-27T01:31:43.643Z,6.60
2023-02-27T01:33:56.322Z,6.10
2023-02-27T01:36:09.394Z,5.50
2023-02-27T01:38:21.894Z,6.00
2023-02-27T01:40:39.790Z,9.60
2023-02-27T01:42:52.507Z,6.70
2023-02-27T01:45:11.336Z,5.60
2023-02-27T01:47:23.879Z,5.30
2023-02-27T01:49:36.558Z,4.60
2023-02-27T01:52:01.854Z,5.20
2023-02-27T01:54:19.975Z,4.70
2023-02-27T01:56:33.061Z,4.60
2023-02-27T01:58:48.798Z,4.50
2023-02-27T02:01:01.493Z,4.70
2023-02-27T02:03:18.876Z,4.50
2023-02-27T02:05:31.666Z,5.00
2023-02-27T02:07:45.520Z,4.70
2023-02-27T02:09:59.986Z,4.60
2023-02-27T02:12:14.832Z,4.50
2023-02-27T02:14:27.645Z,4.60
2023-02-27T02:16:59.466Z,4.70
2023-02-27T02:19:48.974Z,4.80
2023-02-27T02:22:31.404Z,5.10
2023-02-27T02:25:01.895Z,5.00
2023-02-27T02:27:40.301Z,5.50
2023-02-27T02:30:30.957Z,5.20
2023-02-27T02:33:27.200Z,4.60
2023-02-27T02:36:10.870Z,4.90
2023-02-27T02:39:02.826Z,4.60
2023-02-27T02:41:34.600Z,4.90
2023-02-27T02:44:18.053Z,4.60
2023-02-27T02:46:58.770Z,4.40
2023-02-27T02:49:22.917Z,4.10
2023-02-27T02:52:01.374Z,4.30
2023-02-27T02:54:42.182Z,4.40
2023-02-27T02:57:06.764Z,4.70
2023-02-27T02:59:40.703Z,3.70
2023-02-27T03:02:01.562Z,3.50
2023-02-27T03:04:39.955Z,3.60
2023-02-27T03:06:58.193Z,4.20
2023-02-27T03:09:31.347Z,4.10
2023-02-27T03:11:48.353Z,4.00
2023-02-27T03:14:13.741Z,4.00
2023-02-27T03:16:32.174Z,3.60
2023-02-27T03:18:54.276Z,3.30
2023-02-27T03:21:18.699Z,3.90
2023-02-27T03:23:38.185Z,4.30
2023-02-27T03:25:51.576Z,5.90
2023-02-27T03:28:09.538Z,7.10
2023-02-27T03:30:36.813Z,7.70
2023-02-27T03:33:07.672Z,8.40
2023-02-27T03:35:20.425Z,9.10
2023-02-27T03:37:41.997Z,9.30
2023-02-27T03:40:04.486Z,7.50
2023-02-27T03:42:40.115Z,5.80
2023-02-27T03:45:07.999Z,4.90
2023-02-27T03:47:21.084Z,4.10
2023-02-27T03:49:33.728Z,3.60
2023-02-27T03:51:46.572Z,3.30
2023-02-27T03:54:15.614Z,3.40
2023-02-27T03:56:39.821Z,3.20
2023-02-27T03:58:52.776Z,3.40
2023-02-27T04:01:05.360Z,3.50
2023-02-27T04:03:18.229Z,3.50
2023-02-27T04:05:30.894Z,3.50
2023-02-27T04:08:09.784Z,3.40
2023-02-27T04:10:38.577Z,3.40
2023-02-27T04:13:28.743Z,3.50
2023-02-27T04:16:15.735Z,3.80
2023-02-27T04:19:04.316Z,3.30
2023-02-27T04:21:32.058Z,3.40
2023-02-27T04:23:57.885Z,3.30
2023-02-27T04:26:26.081Z,3.50
2023-02-27T04:28:41.432Z,3.60
2023-02-27T04:30:59.871Z,3.30
2023-02-27T04:33:27.759Z,3.30
2023-02-27T04:35:59.693Z,3.70
2023-02-27T04:38:29.987Z,3.20
2023-02-27T04:40:48.268Z,3.30
2023-02-27T04:43:05.742Z,3.40
2023-02-27T04:45:22.650Z,3.50
2023-02-27T04:47:42.074Z,3.30
2023-02-27T04:50:00.048Z,3.80
2023-02-27T04:52:12.724Z,3.70
2023-02-27T04:54:32.143Z,3.40
2023-02-27T04:56:50.942Z,3.50
2023-02-27T04:59:11.579Z,3.80
2023-02-27T05:01:31.565Z,3.60
2023-02-27T05:03:48.268Z,3.50
2023-02-27T05:06:02.810Z,3.50
2023-02-27T05:08:27.302Z,3.30
2023-02-27T05:10:54.800Z,3.50
2023-02-27T05:13:19.201Z,3.40
2023-02-27T05:15:37.057Z,3.60
2023-02-27T05:18:02.990Z,3.50
2023-02-27T05:20:17.175Z,3.30
2023-02-27T05:23:26.793Z,3.50
2023-02-27T05:25:55.220Z,3.80
2023-02-27T05:28:16.996Z,3.70
2023-02-27T05:30:42.600Z,3.60
2023-02-27T05:33:05.358Z,3.60
2023-02-27T05:35:32.651Z,3.50
2023-02-27T05:37:51.412Z,3.90
2023-02-27T05:40:08.399Z,3.70
2023-02-27T05:42:28.702Z,4.10
2023-02-27T05:44:47.495Z,3.60
2023-02-27T05:47:05.498Z,3.70
2023-02-27T05:49:33.461Z,3.70
2023-02-27T05:51:49.224Z,3.60
2023-02-27T05:54:08.835Z,4.10
2023-02-27T05:56:25.210Z,3.70
2023-02-27T05:58:51.476Z,3.90
2023-02-27T06:01:07.249Z,3.70
2023-02-27T06:03:20.576Z,4.10
2023-02-27T06:05:33.537Z,3.70
2023-02-27T06:07:46.311Z,3.90
2023-02-27T06:09:59.083Z,3.70
2023-02-27T06:12:11.646Z,3.70
2023-02-27T06:14:24.183Z,3.60
2023-02-27T06:16:38.992Z,3.80
2023-02-27T06:18:51.645Z,3.60
2023-02-27T06:21:04.730Z,3.90
2023-02-27T06:23:17.731Z,5.40
2023-02-27T06:25:30.647Z,4.70
2023-02-27T06:27:43.298Z,4.40
2023-02-27T06:29:55.854Z,4.00
2023-02-27T06:32:08.473Z,3.60
2023-02-27T06:34:21.223Z,3.90
2023-02-27T06:36:33.792Z,3.60
2023-02-27T06:38:46.871Z,3.60
2023-02-27T06:40:59.553Z,3.40
2023-02-27T06:43:12.146Z,3.50
2023-02-27T06:45:24.708Z,3.50
2023-02-27T06:47:38.354Z,3.60
2023-02-27T06:49:50.928Z,3.70
2023-02-27T06:52:03.457Z,3.60
2023-02-27T06:54:16.057Z,3.60
2023-02-27T06:56:28.834Z,3.60
2023-02-27T06:58:41.641Z,32.70
2023-02-27T07:00:54.212Z,15.40
2023-02-27T07:03:06.961Z,28.10
2023-02-27T07:05:19.697Z,7.80
2023-02-27T07:07:37.525Z,5.20
2023-02-27T07:09:50.902Z,5.00
2023-02-27T07:12:04.757Z,4.00
2023-02-27T07:14:17.602Z,7.20
2023-02-27T07:16:30.119Z,6.20
2023-02-27T07:18:43.083Z,10.40
2023-02-27T07:20:55.627Z,12.60
2023-02-27T07:23:08.218Z,6.20
2023-02-27T07:25:20.752Z,6.80
2023-02-27T07:27:34.080Z,7.30
2023-02-27T07:29:46.698Z,8.20
2023-02-27T07:31:59.267Z,8.00
2023-02-27T07:34:13.020Z,5.90
2023-02-27T07:36:25.843Z,6.80
2023-02-27T07:38:38.902Z,8.90
2023-02-27T07:40:53.337Z,9.40
2023-02-27T07:43:05.855Z,6.00
2023-02-27T07:45:18.539Z,6.70
2023-02-27T07:47:31.598Z,7.60
2023-02-27T07:49:44.385Z,4.60
2023-02-27T07:51:57.062Z,3.60
2023-02-27T07:54:09.589Z,4.00
2023-02-27T07:56:22.125Z,13.20
2023-02-27T07:58:34.624Z,7.40
2023-02-27T08:00:47.202Z,4.60
2023-02-27T08:03:00.517Z,3.90
2023-02-27T08:05:13.106Z,3.80
2023-02-27T08:07:25.761Z,4.30
2023-02-27T08:09:38.379Z,4.20
2023-02-27T08:11:50.962Z,3.80
2023-02-27T08:14:03.580Z,5.50
2023-02-27T08:16:16.256Z,5.50
2023-02-27T08:18:28.865Z,4.10
2023-02-27T08:20:41.381Z,3.80
2023-02-27T08:22:53.894Z,4.00
2023-02-27T08:25:08.545Z,3.30
2023-02-27T08:27:21.133Z,3.50
2023-02-27T08:29:34.141Z,3.60
2023-02-27T08:31:46.899Z,4.80
2023-02-27T08:34:09.325Z,4.30
2023-02-27T08:36:22.580Z,4.60
2023-02-27T08:38:35.071Z,5.40
2023-02-27T08:40:47.612Z,5.50
2023-02-27T08:43:01.277Z,6.20
2023-02-27T08:45:13.866Z,7.70
2023-02-27T08:47:26.399Z,6.70
2023-02-27T08:49:38.997Z,5.20
2023-02-27T08:51:52.552Z,4.20
2023-02-27T08:54:05.299Z,3.90
2023-02-27T08:56:17.854Z,3.60
2023-02-27T08:58:30.432Z,4.00
2023-02-27T09:00:43.057Z,4.10
2023-02-27T09:02:56.687Z,4.00
2023-02-27T09:05:09.564Z,4.30
2023-02-27T09:07:22.154Z,4.60
2023-02-27T09:09:34.729Z,5.40
2023-02-27T09:11:48.317Z,3.60
2023-02-27T09:14:01.006Z,4.00
2023-02-27T09:16:13.689Z,3.90
2023-02-27T09:18:26.408Z,4.10
2023-02-27T09:20:41.278Z,3.90
2023-02-27T09:22:53.800Z,4.30
2023-02-27T09:25:06.653Z,4.20
2023-02-27T09:27:19.141Z,3.00
2023-02-27T09:29:32.023Z,8.30
2023-02-27T09:31:44.966Z,8.70
2023-02-27T09:33:57.593Z,5.10
2023-02-27T09:36:11.199Z,5.50
2023-02-27T09:38:23.847Z,4.50
2023-02-27T09:40:41.640Z,6.90
2023-02-27T09:42:58.191Z,4.90
2023-02-27T09:45:27.522Z,5.80
2023-02-27T09:47:48.097Z,3.30
2023-02-27T09:50:07.557Z,4.00
2023-02-27T09:52:20.121Z,6.10
2023-02-27T09:54:34.176Z,3.30
2023-02-27T09:56:52.432Z,4.50
2023-02-27T09:59:07.782Z,2.60
2023-02-27T10:01:41.783Z,3.10
2023-02-27T10:04:28.276Z,3.10
2023-02-27T10:06:57.895Z,4.50
2023-02-27T10:09:25.755Z,5.70
2023-02-27T10:12:07.505Z,4.30
2023-02-27T10:14:59.490Z,4.90
2023-02-27T10:17:27.934Z,3.50
2023-02-27T10:19:44.186Z,4.20
2023-02-27T10:21:59.859Z,7.20
2023-02-27T10:24:27.375Z,4.20
2023-02-27T10:26:43.009Z,3.50
2023-02-27T10:28:57.698Z,3.80
2023-02-27T10:31:21.205Z,3.90
2023-02-27T10:33:39.702Z,2.90
2023-02-27T10:35:53.730Z,2.70
2023-02-27T10:38:14.928Z,3.10
2023-02-27T10:40:29.295Z,2.90
2023-02-27T10:42:41.983Z,2.80
2023-02-27T10:44:55.992Z,3.10
2023-02-27T10:47:15.276Z,4.10
2023-02-27T10:49:31.562Z,3.50
2023-02-27T10:51:44.966Z,2.80
2023-02-27T10:54:19.895Z,3.10
2023-02-27T10:56:32.440Z,2.90
2023-02-27T10:58:45.522Z,4.00
2023-02-27T11:01:00.585Z,3.00
2023-02-27T11:03:29.735Z,3.30
2023-02-27T11:05:42.355Z,3.30
2023-02-27T11:07:57.620Z,3.00
2023-02-27T11:10:13.020Z,2.90
2023-02-27T11:12:33.639Z,2.90
2023-02-27T11:14:58.663Z,2.40
2023-02-27T11:17:21.940Z,2.80
2023-02-27T11:19:39.201Z,2.70
2023-02-27T11:22:15.457Z,2.30
2023-02-27T11:24:29.046Z,2.00
2023-02-27T11:26:55.336Z,1.60
2023-02-27T11:29:19.086Z,1.80
2023-02-27T11:31:33.977Z,2.00
2023-02-27T11:33:53.268Z,2.10
2023-02-27T11:36:06.560Z,1.90
2023-02-27T11:38:25.358Z,1.80
2023-02-27T11:40:41.545Z,1.90
2023-02-27T11:42:57.510Z,1.90
2023-02-27T11:46:13.609Z,1.80
2023-02-27T11:48:11.383Z,2.00
2023-02-27T11:50:51.864Z,2.30
2023-02-27T11:53:20.098Z,2.20
2023-02-27T11:55:32.955Z,2.00
2023-02-27T11:57:50.225Z,1.50
2023-02-27T12:00:19.786Z,2.10
2023-02-27T12:03:04.773Z,1.90
2023-02-27T12:05:21.229Z,2.40
2023-02-27T12:07:54.800Z,2.40
2023-02-27T12:10:26.530Z,2.70
2023-02-27T12:12:51.016Z,2.40
2023-02-27T12:15:12.715Z,2.90
2023-02-27T12:17:46.348Z,3.00
2023-02-27T12:20:27.001Z,3.00
2023-02-27T12:22:45.783Z,3.30
2023-02-27T12:25:15.569Z,3.40
2023-02-27T12:27:46.116Z,3.50
2023-02-27T12:30:06.638Z,3.30
2023-02-27T12:32:25.782Z,3.30
2023-02-27T12:34:47.097Z,3.30
2023-02-27T12:37:09.021Z,2.80
2023-02-27T12:39:24.435Z,3.00
2023-02-27T12:41:47.537Z,2.90
2023-02-27T12:44:21.511Z,3.10
2023-02-27T12:46:50.765Z,2.70
2023-02-27T12:49:18.321Z,3.30
2023-02-27T12:52:01.780Z,3.50
2023-02-27T12:55:01.571Z,3.00
2023-02-27T12:57:24.674Z,3.20
2023-02-27T12:59:52.344Z,3.30
2023-02-27T13:02:36.253Z,3.00
2023-02-27T13:04:57.090Z,2.80
2023-02-27T13:07:23.143Z,2.90
2023-02-27T13:09:51.061Z,3.00
2023-02-27T13:12:28.294Z,3.00
2023-02-27T13:14:47.913Z,3.60
2023-02-27T13:17:12.548Z,3.20
2023-02-27T13:19:36.192Z,3.50
2023-02-27T13:21:55.204Z,3.50
2023-02-27T13:24:30.459Z,3.60
2023-02-27T13:26:59.274Z,3.20
2023-02-27T13:29:17.112Z,3.30
2023-02-27T13:31:36.932Z,3.30
2023-02-27T13:34:02.484Z,3.20
2023-02-27T13:36:17.871Z,3.20
2023-02-27T13:38:47.478Z,3.30
2023-02-27T13:41:39.167Z,3.20
2023-02-27T13:43:53.728Z,3.10
2023-02-27T13:46:29.738Z,3.60
2023-02-27T13:48:52.030Z,3.30
2023-02-27T13:51:08.054Z,3.40
2023-02-27T13:53:22.480Z,3.50
2023-02-27T13:55:35.366Z,3.60
2023-02-27T13:57:47.960Z,3.70
2023-02-27T14:00:25.683Z,4.00
2023-02-27T14:03:00.562Z,4.10
2023-02-27T14:05:15.940Z,3.80
2023-02-27T14:07:32.100Z,3.80
2023-02-27T14:09:46.508Z,3.90
2023-02-27T14:12:02.341Z,3.70
2023-02-27T14:14:40.727Z,3.90
2023-02-27T14:16:54.364Z,3.90
2023-02-27T14:19:16.234Z,4.20
2023-02-27T14:21:58.618Z,4.20
2023-02-27T14:24:14.993Z,4.20
2023-02-27T14:26:28.402Z,4.10
2023-02-27T14:28:48.900Z,4.30
2023-02-27T14:31:05.777Z,3.90
2023-02-27T14:33:37.380Z,3.60
2023-02-27T14:36:28.846Z,3.90
2023-02-27T14:38:41.532Z,3.70
2023-02-27T14:41:27.317Z,3.40
2023-02-27T14:43:55.190Z,3.70
2023-02-27T14:46:16.265Z,3.80
2023-02-27T14:48:28.990Z,3.60
2023-02-27T14:50:41.743Z,3.80
2023-02-27T14:52:54.768Z,3.80
2023-02-27T14:55:27.905Z,3.70
2023-02-27T14:57:40.477Z,4.00
2023-02-27T14:59:54.151Z,3.90
2023-02-27T15:02:26.581Z,3.90
2023-02-27T15:04:39.186Z,4.00
2023-02-27T15:06:54.572Z,3.90
2023-02-27T15:09:07.931Z,4.10
2023-02-27T15:11:22.344Z,4.00
2023-02-27T15:13:39.468Z,3.90
2023-02-27T15:16:16.739Z,4.10
2023-02-27T15:18:29.488Z,3.70
2023-02-27T15:20:42.272Z,3.50
2023-02-27T15:22:55.285Z,2.80
2023-02-27T15:25:27.934Z,3.30
2023-02-27T15:27:42.421Z,3.50
2023-02-27T15:29:57.655Z,3.20
2023-02-27T15:32:29.157Z,3.40
2023-02-27T15:34:43.920Z,3.10
2023-02-27T15:36:58.516Z,3.60
2023-02-27T15:39:18.568Z,3.80
2023-02-27T15:41:31.280Z,3.90
2023-02-27T15:43:44.425Z,3.80
2023-02-27T15:45:58.194Z,3.50
2023-02-27T15:48:15.268Z,3.80
2023-02-27T15:50:34.042Z,3.60
2023-02-27T15:52:52.240Z,3.40
2023-02-27T15:55:10.250Z,3.50
2023-02-27T15:57:23.293Z,3.20
2023-02-27T15:59:42.161Z,3.10
2023-02-27T16:01:55.587Z,3.50
2023-02-27T16:04:20.853Z,3.40
2023-02-27T16:06:40.589Z,3.90
2023-02-27T16:09:27.361Z,3.60
2023-02-27T16:11:39.895Z,3.70
2023-02-27T16:13:52.898Z,4.00
2023-02-27T16:16:20.655Z,4.20
2023-02-27T16:18:50.240Z,4.10
2023-02-27T16:21:33.356Z,4.10
2023-02-27T16:23:47.159Z,4.20
2023-02-27T16:26:05.769Z,4.70
2023-02-27T16:28:18.317Z,4.60
2023-02-27T16:30:31.003Z,4.60
2023-02-27T16:32:46.613Z,4.60
2023-02-27T16:35:13.818Z,4.90
2023-02-27T16:37:36.100Z,4.70
2023-02-27T16:39:51.978Z,5.20
2023-02-27T16:42:04.482Z,4.80
2023-02-27T16:44:18.149Z,5.30
2023-02-27T16:46:31.049Z,5.60
2023-02-27T16:48:55.710Z,5.70
2023-02-27T16:51:16.578Z,5.50
2023-02-27T16:53:29.216Z,5.60
2023-02-27T16:55:43.434Z,5.90
2023-02-27T16:57:56.106Z,6.20
2023-02-27T17:00:12.965Z,6.00
2023-02-27T17:02:25.558Z,5.90
2023-02-27T17:04:38.310Z,6.00
2023-02-27T17:06:51.855Z,5.70
2023-02-27T17:09:04.763Z,5.80
2023-02-27T17:11:17.429Z,6.00
2023-02-27T17:13:30.126Z,5.90
2023-02-27T17:15:42.880Z,6.10
2023-02-27T17:17:55.400Z,6.00
2023-02-27T17:20:10.109Z,6.20
2023-02-27T17:22:22.628Z,6.00
2023-02-27T17:24:36.711Z,6.00
2023-02-27T17:26:51.481Z,6.30
2023-02-27T17:29:09.631Z,5.80
2023-02-27T17:31:23.190Z,6.20
2023-02-27T17:33:35.884Z,6.50
2023-02-27T17:35:48.469Z,6.10
2023-02-27T17:38:01.012Z,6.30
2023-02-27T17:40:14.008Z,6.50
2023-02-27T17:42:26.678Z,6.20
2023-02-27T17:44:39.311Z,6.40
2023-02-27T17:46:52.085Z,7.40
2023-02-27T17:49:04.740Z,7.80
2023-02-27T17:51:19.022Z,7.50
2023-02-27T17:53:31.779Z,7.30
2023-02-27T17:55:44.548Z,7.80
2023-02-27T17:57:57.049Z,8.50
2023-02-27T18:00:16.348Z,8.80
2023-02-27T18:02:28.968Z,8.50
2023-02-27T18:04:42.609Z,8.60
2023-02-27T18:06:55.420Z,8.20
2023-02-27T18:09:08.041Z,8.50
2023-02-27T18:11:22.136Z,9.00
2023-02-27T18:13:34.786Z,8.70
2023-02-27T18:15:47.976Z,11.60
2023-02-27T18:18:00.565Z,9.50
2023-02-27T18:20:13.412Z,9.60
2023-02-27T18:22:26.646Z,9.20
2023-02-27T18:24:39.265Z,9.30
2023-02-27T18:26:51.868Z,9.70
2023-02-27T18:29:07.961Z,9.50
2023-02-27T18:31:23.152Z,8.70
2023-02-27T18:33:35.742Z,9.80
2023-02-27T18:35:49.061Z,9.00
2023-02-27T18:38:02.385Z,8.90
2023-02-27T18:40:15.494Z,9.00
2023-02-27T18:42:28.041Z,8.70
2023-02-27T18:44:41.422Z,8.40
2023-02-27T18:46:54.109Z,8.20
2023-02-27T18:49:06.978Z,8.10
2023-02-27T18:51:19.980Z,8.30
2023-02-27T18:53:37.635Z,8.60
2023-02-27T18:55:50.180Z,8.20
2023-02-27T18:58:03.807Z,8.00
2023-02-27T19:00:19.015Z,8.20
2023-02-27T19:02:31.593Z,8.50
2023-02-27T19:04:44.318Z,8.70
2023-02-27T19:06:56.890Z,8.10
2023-02-27T19:09:12.645Z,8.70
2023-02-27T19:11:29.394Z,7.90
2023-02-27T19:13:41.981Z,8.30
2023-02-27T19:15:54.675Z,8.80
2023-02-27T19:18:07.340Z,8.70
2023-02-27T19:20:19.947Z,8.80
2023-02-27T19:22:32.847Z,8.50
2023-02-27T19:24:45.516Z,8.70
2023-02-27T19:26:58.124Z,9.10
2023-02-27T19:29:10.711Z,8.30
2023-02-27T19:31:24.222Z,8.80
2023-02-27T19:33:37.186Z,8.80
2023-02-27T19:35:49.834Z,8.70
2023-02-27T19:38:02.409Z,12.50
2023-02-27T19:40:16.082Z,15.80
2023-02-27T19:42:28.672Z,15.20
2023-02-27T19:44:42.171Z,14.90
2023-02-27T19:46:54.857Z,13.70
2023-02-27T19:49:07.823Z,11.20
2023-02-27T19:51:21.239Z,11.10
2023-02-27T19:53:38.644Z,12.50
2023-02-27T19:55:59.782Z,12.90
2023-02-27T19:58:12.403Z,15.80
2023-02-27T20:00:25.404Z,12.40
2023-02-27T20:02:39.879Z,14.60
2023-02-27T20:04:53.566Z,11.90
2023-02-27T20:07:06.270Z,15.10
2023-02-27T20:09:20.594Z,17.10
2023-02-27T20:11:33.162Z,21.10
2023-02-27T20:13:46.186Z,26.30
2023-02-27T20:16:03.339Z,29.60
2023-02-27T20:18:15.909Z,31.60
2023-02-27T20:20:29.649Z,34.00
2023-02-27T20:22:44.795Z,32.00
2023-02-27T20:24:57.404Z,32.50
2023-02-27T20:27:10.552Z,30.20
2023-02-27T20:29:25.611Z,36.60
2023-02-27T20:31:42.387Z,37.10
2023-02-27T20:33:56.172Z,37.00
2023-02-27T20:36:11.215Z,32.80
2023-02-27T20:38:23.812Z,30.00
2023-02-27T20:40:36.407Z,26.90
2023-02-27T20:42:48.993Z,27.00
2023-02-27T20:45:01.684Z,25.80
2023-02-27T20:47:14.250Z,25.90
2023-02-27T20:49:26.836Z,23.50
2023-02-27T20:51:40.002Z,22.90
2023-02-27T20:53:55.478Z,22.70
2023-02-27T20:56:09.575Z,21.70
2023-02-27T20:58:22.130Z,23.30
2023-02-27T21:00:34.872Z,25.20
2023-02-27T21:02:47.539Z,22.10
2023-02-27T21:05:00.916Z,22.70
2023-02-27T21:07:18.700Z,21.40
2023-02-27T21:09:31.266Z,20.50
2023-02-27T21:11:44.163Z,21.00
2023-02-27T21:13:59.322Z,21.80
2023-02-27T21:16:14.764Z,20.10
2023-02-27T21:18:27.425Z,18.90
2023-02-27T21:20:41.614Z,18.40
2023-02-27T21:22:56.912Z,17.80
2023-02-27T21:25:09.686Z,17.70
2023-02-27T21:27:22.557Z,17.50
2023-02-27T21:29:35.158Z,16.90
2023-02-27T21:31:49.453Z,16.20
2023-02-27T21:34:05.586Z,16.40
2023-02-27T21:36:23.751Z,16.60
2023-02-27T21:38:37.310Z,17.60
2023-02-27T21:40:49.885Z,16.20
2023-02-27T21:43:02.478Z,16.60
2023-02-27T21:45:15.617Z,15.20
2023-02-27T21:47:28.738Z,15.10
2023-02-27T21:49:41.446Z,17.70
2023-02-27T21:51:54.624Z,19.30
2023-02-27T21:54:09.973Z,19.20
2023-02-27T21:56:22.583Z,19.40
2023-02-27T21:58:35.788Z,19.10
2023-02-27T22:00:50.200Z,20.30
2023-02-27T22:03:02.964Z,20.30
2023-02-27T22:05:15.832Z,20.20
2023-02-27T22:07:33.112Z,21.30
2023-02-27T22:09:45.788Z,28.90
2023-02-27T22:11:58.690Z,26.70
2023-02-27T22:14:12.442Z,26.00
2023-02-27T22:16:25.211Z,23.60
2023-02-27T22:18:39.539Z,32.60
2023-02-27T22:20:52.229Z,38.70
2023-02-27T22:23:04.998Z,69.10
2023-02-27T22:25:17.747Z,67.50
2023-02-27T22:27:30.378Z,67.40
2023-02-27T22:29:43.161Z,49.10
2023-02-27T22:31:55.823Z,71.70
2023-02-27T22:34:12.533Z,54.80
2023-02-27T22:36:27.445Z,42.60
2023-02-27T22:38:40.526Z,44.40
2023-02-27T22:40:53.119Z,37.60
2023-02-27T22:43:06.106Z,37.90
2023-02-27T22:45:18.661Z,36.90
2023-02-27T22:47:31.226Z,38.10
2023-02-27T22:49:43.813Z,35.90
2023-02-27T22:51:56.334Z,37.30
2023-02-27T22:54:11.461Z,39.00
2023-02-27T22:56:24.541Z,42.80
2023-02-27T22:58:39.040Z,45.10
2023-02-27T23:00:52.056Z,49.30
2023-02-27T23:03:04.571Z,48.20
2023-02-27T23:05:17.239Z,50.00
2023-02-27T23:07:29.746Z,54.70
2023-02-27T23:09:42.364Z,55.40
2023-02-27T23:11:55.531Z,48.80
2023-02-27T23:14:08.979Z,52.70
2023-02-27T23:16:21.750Z,46.50
2023-02-27T23:18:34.339Z,48.20
2023-02-27T23:20:46.903Z,50.60
2023-02-27T23:22:59.577Z,55.00
2023-02-27T23:25:12.194Z,77.50
2023-02-27T23:27:26.417Z,68.10
2023-02-27T23:29:39.139Z,66.10
2023-02-27T23:31:51.814Z,49.90
2023-02-27T23:34:05.870Z,46.40
2023-02-27T23:36:18.560Z,45.30
2023-02-27T23:38:31.114Z,44.80
2023-02-27T23:40:43.654Z,52.10
2023-02-27T23:42:56.195Z,66.00
2023-02-27T23:45:12.682Z,61.90
2023-02-27T23:47:44.083Z,57.90
2023-02-27T23:49:56.667Z,42.60
2023-02-27T23:52:11.864Z,51.80
2023-02-27T23:54:24.386Z,54.40
2023-02-27T23:56:37.207Z,76.40
2023-02-27T23:58:55.272Z,61.80
